createdAt,value
2023-03-16T00:00:14.343Z,99.99
2023-03-16T00:01:14.343Z,99.99
2023-03-16T00:02:14.409Z,99.99
2023-03-16T00:03:14.388Z,99.99
2023-03-16T00:04:14.364Z,99.99
2023-03-16T00:05:14.372Z,99.99
2023-03-16T00:06:14.376Z,99.99
2023-03-16T00:07:14.384Z,99.99
2023-03-16T00:08:14.388Z,99.99
2023-03-16T00:09:14.394Z,99.99
2023-03-16T00:10:14.408Z,99.99
2023-03-16T00:11:14.410Z,99.99
2023-03-16T00:12:14.415Z,99.99
2023-03-16T00:13:14.420Z,99.99
2023-03-16T00:14:14.427Z,99.99
2023-03-16T00:15:14.451Z,99.99
2023-03-16T00:16:14.504Z,99.99
2023-03-16T00:17:14.447Z,99.99
2023-03-16T00:18:14.459Z,99.99
2023-03-16T00:19:14.462Z,99.99
2023-03-16T00:20:14.468Z,99.99
2023-03-16T00:21:14.479Z,99.99
2023-03-16T00:22:14.483Z,99.99
2023-03-16T00:23:14.488Z,99.99
2023-03-16T00:24:14.505Z,99.99
2023-03-16T00:25:14.592Z,99.99
2023-03-16T00:26:14.509Z,99.99
2023-03-16T00:27:14.556Z,99.99
2023-03-16T00:28:14.521Z,99.99
2023-03-16T00:29:14.551Z,99.99
2023-03-16T00:30:14.536Z,99.99
2023-03-16T00:31:14.696Z,99.99
2023-03-16T00:32:14.548Z,99.99
2023-03-16T00:33:14.544Z,99.99
2023-03-16T00:34:14.566Z,99.99
2023-03-16T00:35:14.563Z,99.99
2023-03-16T00:36:14.573Z,99.99
2023-03-16T00:37:14.642Z,99.99
2023-03-16T00:38:14.581Z,99.99
2023-03-16T00:39:14.589Z,99.99
2023-03-16T00:40:14.621Z,99.99
2023-03-16T00:41:14.602Z,99.99
2023-03-16T00:42:14.632Z,99.99
2023-03-16T00:43:14.664Z,99.99
2023-03-16T00:44:14.672Z,99.99
2023-03-16T00:45:14.680Z,99.99
2023-03-16T00:46:14.732Z,99.99
2023-03-16T00:47:14.764Z,99.99
2023-03-16T00:48:14.686Z,99.99
2023-03-16T00:49:14.697Z,99.99
2023-03-16T00:50:14.706Z,99.99
2023-03-16T00:51:14.764Z,99.99
2023-03-16T00:52:14.733Z,99.99
2023-03-16T00:53:14.725Z,99.99
2023-03-16T00:54:14.700Z,99.99
2023-03-16T00:55:14.777Z,99.99
2023-03-16T00:56:14.694Z,99.99
2023-03-16T00:57:14.701Z,99.99
2023-03-16T00:58:14.706Z,99.99
2023-03-16T00:59:14.720Z,99.99
2023-03-16T01:00:14.731Z,99.99
2023-03-16T01:01:14.884Z,99.99
2023-03-16T01:02:14.737Z,99.99
2023-03-16T01:03:14.827Z,99.99
2023-03-16T01:04:14.767Z,99.99
2023-03-16T01:05:14.747Z,99.99
2023-03-16T01:06:14.753Z,99.99
2023-03-16T01:07:14.774Z,99.99
2023-03-16T01:08:14.766Z,99.99
2023-03-16T01:09:14.789Z,99.99
2023-03-16T01:10:14.777Z,99.99
2023-03-16T01:11:14.787Z,99.99
2023-03-16T01:12:14.818Z,99.99
2023-03-16T01:13:14.803Z,99.99
2023-03-16T01:14:14.803Z,99.99
2023-03-16T01:15:14.822Z,99.99
2023-03-16T01:16:14.944Z,99.99
2023-03-16T01:17:14.835Z,99.99
2023-03-16T01:18:14.828Z,99.99
2023-03-16T01:19:15.457Z,99.99
2023-03-16T01:20:14.848Z,99.99
2023-03-16T01:21:14.849Z,99.99
2023-03-16T01:22:14.854Z,99.99
2023-03-16T01:23:14.862Z,99.99
2023-03-16T01:24:14.873Z,99.99
2023-03-16T01:25:14.884Z,99.99
2023-03-16T01:26:14.881Z,99.99
2023-03-16T01:27:14.911Z,99.99
2023-03-16T01:28:14.896Z,99.99
2023-03-16T01:29:14.909Z,99.99
2023-03-16T01:30:14.904Z,99.99
2023-03-16T01:31:14.931Z,99.99
2023-03-16T01:32:14.920Z,99.99
2023-03-16T01:33:14.931Z,99.99
2023-03-16T01:34:14.931Z,99.99
2023-03-16T01:35:14.935Z,99.99
2023-03-16T01:36:14.943Z,99.99
2023-03-16T01:37:14.951Z,99.99
2023-03-16T01:38:14.955Z,99.99
2023-03-16T01:39:14.974Z,99.99
2023-03-16T01:40:14.969Z,99.99
2023-03-16T01:41:14.984Z,99.99
2023-03-16T01:42:15.018Z,99.99
2023-03-16T01:43:14.996Z,99.99
2023-03-16T01:44:15.003Z,99.99
2023-03-16T01:45:15.001Z,99.99
2023-03-16T01:46:15.032Z,99.99
2023-03-16T01:47:15.010Z,99.99
2023-03-16T01:48:15.017Z,99.99
2023-03-16T01:49:15.024Z,99.99
2023-03-16T01:50:15.031Z,99.99
2023-03-16T01:51:15.042Z,99.99
2023-03-16T01:52:15.048Z,99.99
2023-03-16T01:53:15.050Z,99.99
2023-03-16T01:54:15.058Z,99.99
2023-03-16T01:55:15.077Z,99.99
2023-03-16T01:56:15.067Z,99.99
2023-03-16T01:57:15.095Z,99.99
2023-03-16T01:58:15.083Z,99.99
2023-03-16T01:59:15.086Z,99.99
2023-03-16T02:00:15.095Z,99.99
2023-03-16T02:01:15.126Z,99.99
2023-03-16T02:02:15.104Z,99.99
2023-03-16T02:03:15.128Z,99.99
2023-03-16T02:04:15.148Z,99.99
2023-03-16T02:05:15.137Z,99.99
2023-03-16T02:06:15.127Z,99.99
2023-03-16T02:07:15.136Z,99.99
2023-03-16T02:08:15.146Z,99.99
2023-03-16T02:09:15.161Z,99.99
2023-03-16T02:10:15.152Z,99.99
2023-03-16T02:11:15.157Z,99.99
2023-03-16T02:12:15.177Z,99.99
2023-03-16T02:13:15.177Z,99.99
2023-03-16T02:14:15.190Z,99.99
2023-03-16T02:15:15.194Z,99.99
2023-03-16T02:16:15.312Z,99.99
2023-03-16T02:17:15.197Z,99.99
2023-03-16T02:18:15.202Z,99.99
2023-03-16T02:19:15.213Z,99.99
2023-03-16T02:20:15.216Z,99.99
2023-03-16T02:21:15.219Z,99.99
2023-03-16T02:22:15.226Z,99.99
2023-03-16T02:23:15.233Z,99.99
2023-03-16T02:24:15.254Z,99.99
2023-03-16T02:25:15.273Z,99.99
2023-03-16T02:26:15.258Z,99.99
2023-03-16T02:27:15.262Z,99.99
2023-03-16T02:28:15.261Z,99.99
2023-03-16T02:29:15.269Z,99.99
2023-03-16T02:30:15.278Z,99.99
2023-03-16T02:31:15.373Z,99.99
2023-03-16T02:32:15.290Z,99.99
2023-03-16T02:33:15.301Z,99.99
2023-03-16T02:34:15.301Z,99.99
2023-03-16T02:35:15.310Z,99.99
2023-03-16T02:36:15.316Z,99.99
2023-03-16T02:37:15.323Z,99.99
2023-03-16T02:38:15.323Z,99.99
2023-03-16T02:39:15.331Z,99.99
2023-03-16T02:40:15.343Z,99.99
2023-03-16T02:41:15.346Z,99.99
2023-03-16T02:42:15.356Z,99.99
2023-03-16T02:43:15.353Z,99.99
2023-03-16T02:44:15.355Z,99.99
2023-03-16T02:45:15.378Z,99.99
2023-03-16T02:46:15.403Z,99.99
2023-03-16T02:47:15.384Z,99.99
2023-03-16T02:48:15.392Z,99.99
2023-03-16T02:49:15.387Z,99.99
2023-03-16T02:50:15.392Z,99.99
2023-03-16T02:51:15.401Z,99.99
2023-03-16T02:52:15.411Z,99.99
2023-03-16T02:53:15.410Z,99.99
2023-03-16T02:54:15.425Z,99.99
2023-03-16T02:55:15.423Z,99.99
2023-03-16T02:56:15.427Z,99.99
2023-03-16T02:57:15.435Z,99.99
2023-03-16T02:58:15.448Z,99.99
2023-03-16T02:59:15.449Z,99.99
2023-03-16T03:00:15.450Z,99.99
2023-03-16T03:01:15.460Z,99.99
2023-03-16T03:02:15.471Z,99.99
2023-03-16T03:03:15.513Z,99.99
2023-03-16T03:04:15.474Z,99.99
2023-03-16T03:05:15.481Z,99.99
2023-03-16T03:06:15.506Z,99.99
2023-03-16T03:07:15.496Z,99.99
2023-03-16T03:08:15.513Z,99.99
2023-03-16T03:09:15.510Z,99.99
2023-03-16T03:10:15.509Z,99.99
2023-03-16T03:11:15.519Z,99.99
2023-03-16T03:12:15.531Z,99.99
2023-03-16T03:13:15.538Z,99.99
2023-03-16T03:14:15.534Z,99.99
2023-03-16T03:15:15.556Z,99.99
2023-03-16T03:16:15.600Z,99.99
2023-03-16T03:17:15.551Z,99.99
2023-03-16T03:18:15.556Z,99.99
2023-03-16T03:19:15.573Z,99.99
2023-03-16T03:20:15.565Z,99.99
2023-03-16T03:21:15.575Z,99.99
2023-03-16T03:22:15.578Z,99.99
2023-03-16T03:23:15.639Z,99.99
2023-03-16T03:24:15.593Z,99.99
2023-03-16T03:25:15.596Z,99.99
2023-03-16T03:26:15.606Z,99.99
2023-03-16T03:27:15.610Z,99.99
2023-03-16T03:28:15.619Z,99.99
2023-03-16T03:29:15.626Z,99.99
2023-03-16T03:30:15.627Z,99.99
2023-03-16T03:31:15.656Z,99.99
2023-03-16T03:32:15.643Z,99.99
2023-03-16T03:33:15.649Z,99.99
2023-03-16T03:34:15.660Z,99.99
2023-03-16T03:35:15.657Z,99.99
2023-03-16T03:36:15.664Z,99.99
2023-03-16T03:37:15.677Z,99.99
2023-03-16T03:38:15.674Z,99.99
2023-03-16T03:39:15.679Z,99.99
2023-03-16T03:40:15.683Z,99.99
2023-03-16T03:41:15.699Z,99.99
2023-03-16T03:42:15.711Z,99.99
2023-03-16T03:43:15.702Z,99.99
2023-03-16T03:44:15.707Z,99.99
2023-03-16T03:45:15.717Z,99.99
2023-03-16T03:46:15.814Z,99.99
2023-03-16T03:47:15.724Z,99.99
2023-03-16T03:48:15.728Z,99.99
2023-03-16T03:49:15.744Z,99.99
2023-03-16T03:50:15.744Z,99.99
2023-03-16T03:51:15.749Z,99.99
2023-03-16T03:52:15.761Z,99.99
2023-03-16T03:53:15.758Z,99.99
2023-03-16T03:54:15.762Z,99.99
2023-03-16T03:55:15.773Z,99.99
2023-03-16T03:56:15.791Z,99.99
2023-03-16T03:57:15.781Z,99.99
2023-03-16T03:58:15.789Z,99.99
2023-03-16T03:59:15.798Z,99.99
2023-03-16T04:00:15.800Z,99.99
2023-03-16T04:01:15.804Z,99.99
2023-03-16T04:02:15.883Z,99.99
2023-03-16T04:03:16.044Z,99.99
2023-03-16T04:04:15.822Z,99.99
2023-03-16T04:05:15.838Z,99.99
2023-03-16T04:06:15.834Z,99.99
2023-03-16T04:07:15.836Z,99.99
2023-03-16T04:08:15.841Z,99.99
2023-03-16T04:09:15.848Z,99.99
2023-03-16T04:10:15.870Z,99.99
2023-03-16T04:11:15.867Z,99.99
2023-03-16T04:12:15.864Z,99.99
2023-03-16T04:13:15.868Z,99.99
2023-03-16T04:14:15.892Z,99.99
2023-03-16T04:15:15.882Z,99.99
2023-03-16T04:16:15.912Z,99.99
2023-03-16T04:17:15.896Z,99.99
2023-03-16T04:18:15.897Z,99.99
2023-03-16T04:19:15.903Z,99.99
2023-03-16T04:20:15.915Z,99.99
2023-03-16T04:21:15.922Z,99.99
2023-03-16T04:22:15.920Z,99.99
2023-03-16T04:23:15.926Z,99.99
2023-03-16T04:24:15.931Z,99.99
2023-03-16T04:25:15.937Z,99.99
2023-03-16T04:26:15.940Z,99.99
2023-03-16T04:27:15.957Z,99.99
2023-03-16T04:28:15.954Z,99.99
2023-03-16T04:29:15.962Z,99.99
2023-03-16T04:30:15.976Z,99.99
2023-03-16T04:31:15.982Z,99.99
2023-03-16T04:32:15.989Z,99.99
2023-03-16T04:33:15.993Z,99.99
2023-03-16T04:34:15.990Z,99.99
2023-03-16T04:35:15.996Z,99.99
2023-03-16T04:36:16.018Z,99.99
2023-03-16T04:37:16.009Z,99.99
2023-03-16T04:38:16.008Z,99.99
2023-03-16T04:39:16.028Z,99.99
2023-03-16T04:40:16.055Z,99.99
2023-03-16T04:41:16.051Z,99.99
2023-03-16T04:42:16.040Z,99.99
2023-03-16T04:43:16.042Z,99.99
2023-03-16T04:44:16.052Z,99.99
2023-03-16T04:45:16.052Z,99.99
2023-03-16T04:46:16.150Z,99.99
2023-03-16T04:47:16.070Z,99.99
2023-03-16T04:48:16.069Z,99.99
2023-03-16T04:49:16.077Z,99.99
2023-03-16T04:50:16.075Z,99.99
2023-03-16T04:51:16.082Z,99.99
2023-03-16T04:52:16.091Z,99.99
2023-03-16T04:53:16.094Z,99.99
2023-03-16T04:54:16.104Z,99.99
2023-03-16T04:55:16.107Z,99.99
2023-03-16T04:56:16.110Z,99.99
2023-03-16T04:57:16.116Z,99.99
2023-03-16T04:58:16.122Z,99.99
2023-03-16T04:59:16.129Z,99.99
2023-03-16T05:00:16.132Z,99.99
2023-03-16T05:01:16.150Z,99.99
2023-03-16T05:02:16.142Z,99.99
2023-03-16T05:03:16.147Z,99.99
2023-03-16T05:04:19.419Z,99.99
2023-03-16T05:05:16.291Z,99.99
2023-03-16T05:06:16.170Z,99.99
2023-03-16T05:07:16.177Z,99.99
2023-03-16T05:08:16.177Z,99.99
2023-03-16T05:09:16.184Z,99.99
2023-03-16T05:10:16.185Z,99.99
2023-03-16T05:11:16.190Z,99.99
2023-03-16T05:12:16.202Z,99.99
2023-03-16T05:13:16.205Z,99.99
2023-03-16T05:14:16.207Z,99.99
2023-03-16T05:15:16.213Z,99.99
2023-03-16T05:16:16.277Z,99.99
2023-03-16T05:17:16.230Z,99.99
2023-03-16T05:18:16.233Z,99.99
2023-03-16T05:19:16.505Z,99.99
2023-03-16T05:20:16.571Z,99.99
2023-03-16T05:21:16.246Z,99.99
2023-03-16T05:22:16.249Z,99.99
2023-03-16T05:23:16.259Z,99.99
2023-03-16T05:24:16.266Z,99.99
2023-03-16T05:25:16.281Z,99.99
2023-03-16T05:26:16.278Z,99.99
2023-03-16T05:27:16.277Z,99.99
2023-03-16T05:28:16.296Z,99.99
2023-03-16T05:29:16.291Z,99.99
2023-03-16T05:30:16.326Z,99.99
2023-03-16T05:31:16.374Z,99.99
2023-03-16T05:32:16.324Z,99.99
2023-03-16T05:33:16.310Z,99.99
2023-03-16T05:34:16.363Z,99.99
2023-03-16T05:35:16.331Z,99.99
2023-03-16T05:36:16.330Z,99.99
2023-03-16T05:37:16.336Z,99.99
2023-03-16T05:38:16.346Z,99.99
2023-03-16T05:39:16.353Z,99.99
2023-03-16T05:40:16.355Z,99.99
2023-03-16T05:41:16.360Z,99.99
2023-03-16T05:42:16.364Z,99.99
2023-03-16T05:43:16.369Z,99.99
2023-03-16T05:44:16.389Z,99.99
2023-03-16T05:45:16.387Z,99.99
2023-03-16T05:46:17.174Z,99.99
2023-03-16T05:47:16.396Z,99.99
2023-03-16T05:48:16.400Z,99.99
2023-03-16T05:49:16.410Z,99.99
2023-03-16T05:50:16.423Z,99.99
2023-03-16T05:51:16.416Z,99.99
2023-03-16T05:52:16.450Z,99.99
2023-03-16T05:53:16.425Z,99.99
2023-03-16T05:54:16.435Z,99.99
2023-03-16T05:55:16.438Z,99.99
2023-03-16T05:56:16.453Z,99.99
2023-03-16T05:57:16.448Z,99.99
2023-03-16T05:58:16.469Z,99.99
2023-03-16T05:59:16.458Z,99.99
2023-03-16T06:00:16.539Z,99.99
2023-03-16T06:01:16.481Z,99.99
2023-03-16T06:02:16.474Z,99.99
2023-03-16T06:03:16.543Z,99.99
2023-03-16T06:04:16.549Z,99.99
2023-03-16T06:05:16.505Z,99.99
2023-03-16T06:06:16.495Z,99.99
2023-03-16T06:07:16.515Z,99.99
2023-03-16T06:08:16.507Z,99.99
2023-03-16T06:09:16.513Z,99.99
2023-03-16T06:10:16.524Z,99.99
2023-03-16T06:11:16.538Z,99.99
2023-03-16T06:12:16.527Z,99.99
2023-03-16T06:13:16.540Z,99.99
2023-03-16T06:14:16.542Z,99.99
2023-03-16T06:15:16.545Z,99.99
2023-03-16T06:16:16.585Z,99.99
2023-03-16T06:17:16.558Z,99.99
2023-03-16T06:18:16.566Z,99.99
2023-03-16T06:19:16.569Z,99.99
2023-03-16T06:20:16.574Z,99.99
2023-03-16T06:21:16.586Z,99.99
2023-03-16T06:22:16.639Z,99.99
2023-03-16T06:23:16.602Z,99.99
2023-03-16T06:24:16.616Z,99.99
2023-03-16T06:25:16.609Z,99.99
2023-03-16T06:26:16.615Z,99.99
2023-03-16T06:27:16.645Z,99.99
2023-03-16T06:28:16.621Z,99.99
2023-03-16T06:29:16.630Z,99.99
2023-03-16T06:30:16.639Z,99.99
2023-03-16T06:31:16.683Z,99.99
2023-03-16T06:32:16.647Z,99.99
2023-03-16T06:33:16.652Z,99.99
2023-03-16T06:34:16.660Z,99.99
2023-03-16T06:35:16.666Z,99.99
2023-03-16T06:36:16.671Z,99.99
2023-03-16T06:37:16.682Z,99.99
2023-03-16T06:38:16.688Z,99.99
2023-03-16T06:39:16.689Z,99.99
2023-03-16T06:40:16.695Z,99.99
2023-03-16T06:41:16.701Z,99.99
2023-03-16T06:42:16.705Z,99.99
2023-03-16T06:43:16.713Z,99.99
2023-03-16T06:44:16.723Z,99.99
2023-03-16T06:45:16.754Z,99.99
2023-03-16T06:46:16.816Z,99.99
2023-03-16T06:47:16.749Z,99.99
2023-03-16T06:48:16.748Z,99.99
2023-03-16T06:49:16.752Z,99.99
2023-03-16T06:50:16.756Z,99.99
2023-03-16T06:51:16.989Z,99.99
2023-03-16T06:52:16.768Z,99.99
2023-03-16T06:53:16.780Z,99.99
2023-03-16T06:54:16.785Z,99.99
2023-03-16T06:55:16.788Z,99.99
2023-03-16T06:56:16.800Z,99.99
2023-03-16T06:57:16.802Z,99.99
2023-03-16T06:58:16.809Z,99.99
2023-03-16T06:59:16.815Z,99.99
2023-03-16T07:00:16.828Z,99.99
2023-03-16T07:01:16.913Z,99.99
2023-03-16T07:02:16.833Z,99.99
2023-03-16T07:03:16.838Z,99.99
2023-03-16T07:04:16.901Z,99.99
2023-03-16T07:05:16.852Z,99.99
2023-03-16T07:06:16.860Z,99.99
2023-03-16T07:07:16.862Z,99.99
2023-03-16T07:08:16.869Z,99.99
2023-03-16T07:09:16.878Z,99.99
2023-03-16T07:10:16.882Z,99.99
2023-03-16T07:11:16.891Z,99.99
2023-03-16T07:12:16.906Z,99.99
2023-03-16T07:13:16.907Z,99.99
2023-03-16T07:14:16.910Z,99.99
2023-03-16T07:15:16.923Z,99.99
2023-03-16T07:16:16.952Z,99.99
2023-03-16T07:17:16.929Z,99.99
2023-03-16T07:18:16.943Z,99.99
2023-03-16T07:19:16.947Z,99.99
2023-03-16T07:20:16.962Z,99.99
2023-03-16T07:21:16.962Z,99.99
2023-03-16T07:22:16.973Z,99.99
2023-03-16T07:23:16.973Z,99.99
2023-03-16T07:24:16.993Z,99.99
2023-03-16T07:25:17.007Z,99.99
2023-03-16T07:26:17.007Z,99.99
2023-03-16T07:27:16.999Z,99.99
2023-03-16T07:28:17.011Z,99.99
2023-03-16T07:29:17.018Z,99.99
2023-03-16T07:30:17.037Z,99.99
2023-03-16T07:31:17.087Z,99.99
2023-03-16T07:32:17.052Z,99.99
2023-03-16T07:33:17.051Z,99.99
2023-03-16T07:34:17.052Z,99.99
2023-03-16T07:35:17.080Z,99.99
2023-03-16T07:36:17.135Z,99.99
2023-03-16T07:37:18.353Z,99.99
2023-03-16T07:38:17.083Z,99.99
2023-03-16T07:39:17.109Z,99.99
2023-03-16T07:40:17.101Z,99.99
2023-03-16T07:41:17.109Z,99.99
2023-03-16T07:42:17.112Z,99.99
2023-03-16T07:43:17.125Z,99.99
2023-03-16T07:44:17.134Z,99.99
2023-03-16T07:45:17.144Z,99.99
2023-03-16T07:46:17.189Z,99.99
2023-03-16T07:47:17.156Z,99.99
2023-03-16T07:48:17.165Z,99.99
2023-03-16T07:49:17.177Z,99.99
2023-03-16T07:50:17.195Z,99.99
2023-03-16T07:51:17.199Z,99.99
2023-03-16T07:52:17.199Z,99.99
2023-03-16T07:53:17.207Z,99.99
2023-03-16T07:54:17.220Z,99.99
2023-03-16T07:55:17.223Z,99.99
2023-03-16T07:56:17.232Z,99.99
2023-03-16T07:57:17.255Z,99.99
2023-03-16T07:58:17.251Z,99.99
2023-03-16T07:59:18.294Z,99.99
2023-03-16T08:00:17.267Z,99.99
2023-03-16T08:01:17.277Z,99.99
2023-03-16T08:02:17.327Z,99.99
2023-03-16T08:03:17.326Z,99.99
2023-03-16T08:04:17.304Z,99.99
2023-03-16T08:05:17.313Z,99.99
2023-03-16T08:06:17.322Z,99.99
2023-03-16T08:07:17.333Z,99.99
2023-03-16T08:08:17.345Z,99.99
2023-03-16T08:09:17.351Z,99.99
2023-03-16T08:10:17.358Z,99.99
2023-03-16T08:11:17.371Z,99.99
2023-03-16T08:12:17.377Z,99.99
2023-03-16T08:13:17.388Z,99.99
2023-03-16T08:14:17.399Z,99.99
2023-03-16T08:15:17.405Z,99.99
2023-03-16T08:16:17.762Z,99.99
2023-03-16T08:17:17.424Z,99.99
2023-03-16T08:18:17.455Z,99.99
2023-03-16T08:19:17.440Z,99.99
2023-03-16T08:20:17.454Z,99.99
2023-03-16T08:21:17.471Z,99.99
2023-03-16T08:22:17.475Z,99.99
2023-03-16T08:23:17.492Z,99.99
2023-03-16T08:24:17.492Z,99.99
2023-03-16T08:25:17.502Z,99.99
2023-03-16T08:26:17.509Z,99.99
2023-03-16T08:27:17.519Z,99.99
2023-03-16T08:28:17.529Z,99.99
2023-03-16T08:29:17.590Z,99.99
2023-03-16T08:30:17.546Z,99.99
2023-03-16T08:31:17.642Z,99.99
2023-03-16T08:32:17.565Z,99.99
2023-03-16T08:33:17.577Z,99.99
2023-03-16T08:34:17.586Z,99.99
2023-03-16T08:35:17.594Z,99.99
2023-03-16T08:36:17.633Z,99.99
2023-03-16T08:37:17.614Z,99.99
2023-03-16T08:38:17.625Z,99.99
2023-03-16T08:39:17.632Z,99.99
2023-03-16T08:40:17.645Z,99.99
2023-03-16T08:41:17.652Z,99.99
2023-03-16T08:42:17.659Z,99.99
2023-03-16T08:43:17.670Z,99.99
2023-03-16T08:44:17.682Z,99.99
2023-03-16T08:45:17.687Z,99.99
2023-03-16T08:46:17.736Z,99.99
2023-03-16T08:47:17.704Z,99.99
2023-03-16T08:48:17.718Z,99.99
2023-03-16T08:49:17.723Z,99.99
2023-03-16T08:50:17.738Z,99.99
2023-03-16T08:51:17.764Z,99.99
2023-03-16T08:52:17.753Z,99.99
2023-03-16T08:53:17.761Z,99.99
2023-03-16T08:54:17.769Z,99.99
2023-03-16T08:55:17.782Z,99.99
2023-03-16T08:56:17.788Z,99.99
2023-03-16T08:57:17.797Z,99.99
2023-03-16T08:58:17.824Z,99.99
2023-03-16T08:59:29.170Z,99.99
2023-03-16T09:00:17.828Z,99.99
2023-03-16T09:01:17.837Z,99.99
2023-03-16T09:02:17.845Z,99.99
2023-03-16T09:03:17.858Z,99.99
2023-03-16T09:04:17.920Z,99.99
2023-03-16T09:05:17.874Z,99.99
2023-03-16T09:06:17.884Z,99.99
2023-03-16T09:07:17.892Z,99.99
2023-03-16T09:08:17.906Z,99.99
2023-03-16T09:09:17.921Z,99.99
2023-03-16T09:10:17.923Z,99.99
2023-03-16T09:11:17.933Z,99.99
2023-03-16T09:12:17.942Z,99.99
2023-03-16T09:13:17.953Z,99.99
2023-03-16T09:14:17.963Z,99.99
2023-03-16T09:15:17.973Z,99.99
2023-03-16T09:16:18.038Z,99.99
2023-03-16T09:17:17.991Z,99.99
2023-03-16T09:18:18.000Z,99.99
2023-03-16T09:19:18.013Z,99.99
2023-03-16T09:20:29.917Z,99.99
2023-03-16T09:21:18.030Z,99.99
2023-03-16T09:22:18.044Z,99.99
2023-03-16T09:23:18.051Z,99.99
2023-03-16T09:24:18.071Z,99.99
2023-03-16T09:25:18.072Z,99.99
2023-03-16T09:26:18.078Z,99.99
2023-03-16T09:27:18.198Z,99.99
2023-03-16T09:28:19.128Z,99.99
2023-03-16T09:29:18.112Z,99.99
2023-03-16T09:30:18.137Z,99.99
2023-03-16T09:31:18.184Z,99.99
2023-03-16T09:32:18.139Z,99.99
2023-03-16T09:33:18.152Z,99.99
2023-03-16T09:34:18.162Z,99.99
2023-03-16T09:35:18.206Z,99.99
2023-03-16T09:36:18.196Z,99.99
2023-03-16T09:37:18.193Z,99.99
2023-03-16T09:38:18.201Z,99.99
2023-03-16T09:39:18.213Z,99.99
2023-03-16T09:40:18.222Z,99.99
2023-03-16T09:41:18.233Z,99.99
2023-03-16T09:42:18.264Z,99.99
2023-03-16T09:43:18.252Z,99.99
2023-03-16T09:44:18.266Z,99.99
2023-03-16T09:45:18.276Z,99.99
2023-03-16T09:46:18.295Z,99.99
2023-03-16T09:47:18.304Z,99.99
2023-03-16T09:48:18.308Z,99.99
2023-03-16T09:49:18.320Z,99.99
2023-03-16T09:50:18.359Z,99.99
2023-03-16T09:51:18.413Z,99.99
2023-03-16T09:52:18.352Z,99.99
2023-03-16T09:53:18.362Z,99.99
2023-03-16T09:54:18.369Z,99.99
2023-03-16T09:55:18.380Z,99.99
2023-03-16T09:56:18.392Z,99.99
2023-03-16T09:57:18.406Z,99.99
2023-03-16T09:58:18.412Z,99.99
2023-03-16T09:59:18.424Z,99.99
2023-03-16T10:00:18.441Z,99.99
2023-03-16T10:01:18.460Z,99.99
2023-03-16T10:02:18.466Z,99.99
2023-03-16T10:03:18.471Z,99.99
2023-03-16T10:04:18.526Z,99.99
2023-03-16T10:05:18.489Z,99.99
2023-03-16T10:06:18.500Z,99.99
2023-03-16T10:07:18.520Z,99.99
2023-03-16T10:08:18.521Z,99.99
2023-03-16T10:09:18.533Z,99.99
2023-03-16T10:10:18.555Z,99.99
2023-03-16T10:11:18.583Z,99.99
2023-03-16T10:12:18.573Z,99.99
2023-03-16T10:13:18.581Z,99.99
2023-03-16T10:14:18.583Z,99.99
2023-03-16T10:15:18.636Z,99.99
2023-03-16T10:16:18.654Z,99.99
2023-03-16T10:17:18.626Z,99.99
2023-03-16T10:18:18.649Z,99.99
2023-03-16T10:19:18.643Z,99.99
2023-03-16T10:20:18.652Z,99.99
2023-03-16T10:21:18.668Z,99.99
2023-03-16T10:22:18.675Z,99.99
2023-03-16T10:23:18.695Z,99.99
2023-03-16T10:24:18.698Z,99.99
2023-03-16T10:25:18.709Z,99.99
2023-03-16T10:26:18.725Z,99.99
2023-03-16T10:27:18.733Z,99.99
2023-03-16T10:28:18.754Z,99.99
2023-03-16T10:29:18.757Z,99.99
2023-03-16T10:30:18.771Z,99.99
2023-03-16T10:31:18.991Z,99.99
2023-03-16T10:32:18.800Z,99.99
2023-03-16T10:33:18.865Z,99.99
2023-03-16T10:34:18.811Z,99.99
2023-03-16T10:35:18.823Z,99.99
2023-03-16T10:36:18.845Z,99.99
2023-03-16T10:37:18.851Z,99.99
2023-03-16T10:38:18.864Z,99.99
2023-03-16T10:39:18.869Z,99.99
2023-03-16T10:40:18.881Z,99.99
2023-03-16T10:41:18.899Z,99.99
2023-03-16T10:42:18.905Z,99.99
2023-03-16T10:43:18.927Z,99.99
2023-03-16T10:44:18.935Z,99.99
2023-03-16T10:45:18.959Z,99.99
2023-03-16T10:46:19.102Z,99.99
2023-03-16T10:47:19.025Z,99.99
2023-03-16T10:48:18.979Z,99.99
2023-03-16T10:49:18.990Z,99.99
2023-03-16T10:50:19.000Z,99.99
2023-03-16T10:51:19.013Z,99.99
2023-03-16T10:52:19.027Z,99.99
2023-03-16T10:53:19.040Z,99.99
2023-03-16T10:54:19.051Z,99.99
2023-03-16T10:55:19.062Z,99.99
2023-03-16T10:56:19.080Z,99.99
2023-03-16T10:57:19.089Z,99.99
2023-03-16T10:58:19.100Z,99.99
2023-03-16T10:59:19.109Z,99.99
2023-03-16T11:00:19.222Z,99.99
2023-03-16T11:01:19.171Z,99.99
2023-03-16T11:02:19.155Z,99.99
2023-03-16T11:03:19.160Z,99.99
2023-03-16T11:04:19.187Z,99.99
2023-03-16T11:05:19.204Z,99.99
2023-03-16T11:06:19.197Z,99.99
2023-03-16T11:07:19.213Z,99.99
2023-03-16T11:08:19.221Z,99.99
2023-03-16T11:09:19.234Z,99.99
2023-03-16T11:10:19.250Z,99.99
2023-03-16T11:11:19.293Z,99.99
2023-03-16T11:12:19.268Z,99.99
2023-03-16T11:13:19.284Z,99.99
2023-03-16T11:14:19.296Z,99.99
2023-03-16T11:15:25.819Z,99.99
2023-03-16T11:16:19.344Z,99.99
2023-03-16T11:17:19.337Z,99.99
2023-03-16T11:18:19.344Z,99.99
2023-03-16T11:19:19.364Z,99.99
2023-03-16T11:20:19.368Z,99.99
2023-03-16T11:21:19.382Z,99.99
2023-03-16T11:22:19.403Z,99.99
2023-03-16T11:23:19.409Z,99.99
2023-03-16T11:24:19.420Z,99.99
2023-03-16T11:25:19.434Z,99.99
2023-03-16T11:26:19.451Z,99.99
2023-03-16T11:27:19.456Z,99.99
2023-03-16T11:28:19.480Z,99.99
2023-03-16T11:29:19.483Z,99.99
2023-03-16T11:30:19.496Z,99.99
2023-03-16T11:31:19.536Z,99.99
2023-03-16T11:32:19.530Z,99.99
2023-03-16T11:33:19.532Z,99.99
2023-03-16T11:34:19.544Z,99.99
2023-03-16T11:35:19.581Z,99.99
2023-03-16T11:36:19.604Z,99.99
2023-03-16T11:37:19.584Z,99.99
2023-03-16T11:38:19.608Z,99.99
2023-03-16T11:39:19.627Z,99.99
2023-03-16T11:40:19.624Z,99.99
2023-03-16T11:41:19.637Z,99.99
2023-03-16T11:42:19.651Z,99.99
2023-03-16T11:43:19.662Z,99.99
2023-03-16T11:44:19.683Z,99.99
2023-03-16T11:45:19.696Z,99.99
2023-03-16T11:46:19.782Z,99.99
2023-03-16T11:47:19.720Z,99.99
2023-03-16T11:48:19.736Z,99.99
2023-03-16T11:49:19.737Z,99.99
2023-03-16T11:50:19.751Z,99.99
2023-03-16T11:51:19.769Z,99.99
2023-03-16T11:52:19.774Z,99.99
2023-03-16T11:53:19.785Z,99.99
2023-03-16T11:54:19.796Z,99.99
2023-03-16T11:55:19.815Z,99.99
2023-03-16T11:56:19.823Z,99.99
2023-03-16T11:57:19.850Z,99.99
2023-03-16T11:58:19.848Z,99.99
2023-03-16T11:59:19.878Z,98.21
2023-03-16T12:00:19.879Z,99.99
2023-03-16T12:01:19.888Z,99.99
2023-03-16T12:02:20.158Z,99.99
2023-03-16T12:03:20.004Z,99.99
2023-03-16T12:04:19.981Z,99.99
2023-03-16T12:05:19.939Z,99.99
2023-03-16T12:06:23.106Z,99.07
2023-03-16T12:07:20.059Z,97.64
2023-03-16T12:08:19.974Z,98.40
2023-03-16T12:09:19.984Z,98.97
2023-03-16T12:10:20.004Z,99.99
2023-03-16T12:11:20.016Z,99.99
2023-03-16T12:12:20.026Z,99.99
2023-03-16T12:13:20.049Z,99.99
2023-03-16T12:14:20.050Z,99.99
2023-03-16T12:15:20.061Z,99.88
2023-03-16T12:16:20.192Z,98.74
2023-03-16T12:17:20.085Z,99.97
2023-03-16T12:18:20.101Z,99.99
2023-03-16T12:19:20.116Z,99.99
2023-03-16T12:20:20.153Z,99.50
2023-03-16T12:21:20.142Z,99.99
2023-03-16T12:22:20.147Z,99.88
2023-03-16T12:23:20.165Z,99.69
2023-03-16T12:24:20.177Z,99.50
2023-03-16T12:25:20.187Z,99.50
2023-03-16T12:26:20.207Z,99.97
2023-03-16T12:27:20.275Z,99.99
2023-03-16T12:28:20.229Z,99.69
2023-03-16T12:29:20.246Z,99.88
2023-03-16T12:30:20.254Z,98.93
2023-03-16T12:31:20.339Z,98.93
2023-03-16T12:32:20.275Z,98.07
2023-03-16T12:33:20.295Z,97.50
2023-03-16T12:34:20.306Z,97.97
2023-03-16T12:35:20.321Z,97.69
2023-03-16T12:36:20.333Z,97.78
2023-03-16T12:37:20.353Z,98.45
2023-03-16T12:38:20.358Z,99.02
2023-03-16T12:39:20.372Z,98.93
2023-03-16T12:40:20.384Z,99.50
2023-03-16T12:41:20.398Z,98.45
2023-03-16T12:42:20.424Z,99.88
2023-03-16T12:43:20.425Z,98.93
2023-03-16T12:44:20.445Z,98.93
2023-03-16T12:45:20.456Z,97.69
2023-03-16T12:46:20.479Z,97.97
2023-03-16T12:47:20.479Z,98.83
2023-03-16T12:48:20.489Z,96.65
2023-03-16T12:49:20.503Z,97.50
2023-03-16T12:50:20.517Z,98.64
2023-03-16T12:51:20.545Z,99.88
2023-03-16T12:52:20.539Z,99.30